Time;durP1;ratioP1;P1;durP2;ratioP2;P2;SDS_P1;SDS_P2;PMS_P1;PMS_P2;Temp;Humidity;BMP_temperature;BMP_pressure;BME280_temperature;BME280_humidity;BME280_pressure;Samples;Min_cycle;Max_cycle;Signal;HPM_P1;HPM_P2
2024/01/08 00:00:13;;;;;;;11.52;6.75;;;;;;;11.06;84.68;98048.25;5111541;28;20352;-26
2024/01/08 00:02:39;;;;;;;13.00;7.13;;;;;;;11.08;85.42;98058.63;5110985;28;20024;-26
2024/01/08 00:05:04;;;;;;;14.10;7.63;;;;;;;11.07;85.12;98062.34;5111209;28;20027;-26
2024/01/08 00:07:30;;;;;;;14.55;7.78;;;;;;;11.07;84.71;98067.66;5111513;28;20036;-25
2024/01/08 00:09:55;;;;;;;14.13;8.23;;;;;;;10.99;85.38;98068.09;5111005;28;20483;-26
2024/01/08 00:12:20;;;;;;;14.00;7.60;;;;;;;10.93;86.06;98072.56;5110996;28;20446;-26
2024/01/08 00:14:46;;;;;;;14.63;8.00;;;;;;;11.18;84.90;98071.28;5110736;28;20599;-26
2024/01/08 00:17:11;;;;;;;15.45;7.90;;;;;;;10.98;85.96;98067.28;5110173;28;20085;-26
2024/01/08 00:19:36;;;;;;;13.02;7.97;;;;;;;11.13;85.71;98075.44;5110943;28;20032;-25
2024/01/08 00:22:02;;;;;;;12.50;8.07;;;;;;;11.17;85.81;98078.44;5110755;28;20051;-26
2024/01/08 00:24:27;;;;;;;12.73;7.68;;;;;;;11.15;85.83;98075.22;5110701;27;20028;-25
2024/01/08 00:26:53;;;;;;;13.23;7.60;;;;;;;11.30;85.75;98083.38;5110977;28;20104;-26
2024/01/08 00:29:18;;;;;;;13.50;8.02;;;;;;;11.44;84.66;98075.00;5110928;28;20107;-26
2024/01/08 00:31:43;;;;;;;14.48;7.88;;;;;;;11.32;85.61;98075.16;5110319;28;20100;-26
2024/01/08 00:34:09;;;;;;;11.88;7.18;;;;;;;11.05;86.57;98069.78;5110511;28;20026;-26
2024/01/08 00:36:34;;;;;;;13.48;8.10;;;;;;;10.90;87.83;98070.38;5110010;28;20033;-24
2024/01/08 00:39:00;;;;;;;14.27;8.18;;;;;;;10.64;89.98;98085.19;5110732;28;20054;-26
2024/01/08 00:41:25;;;;;;;13.32;8.02;;;;;;;10.99;88.76;98084.88;5110694;28;20059;-25
2024/01/08 00:43:51;;;;;;;13.35;7.82;;;;;;;11.15;87.52;98089.31;5110491;28;20059;-25
2024/01/08 00:46:17;;;;;;;14.70;7.60;;;;;;;11.03;88.45;98090.50;5110791;28;20026;-25
2024/01/08 00:48:43;;;;;;;12.55;8.18;;;;;;;11.28;87.36;98096.13;5110626;28;20046;-25
2024/01/08 00:51:09;;;;;;;16.25;8.27;;;;;;;11.30;87.70;98091.38;5109139;28;20027;-26
2024/01/08 00:53:34;;;;;;;14.15;7.88;;;;;;;11.33;87.21;98098.88;5110091;28;20080;-25
2024/01/08 00:56:00;;;;;;;12.40;8.10;;;;;;;11.35;87.76;98109.28;5109627;28;20019;-26
2024/01/08 00:58:25;;;;;;;13.00;7.45;;;;;;;11.27;87.87;98094.53;5110267;28;20023;-25
2024/01/08 01:00:51;;;;;;;13.02;7.88;;;;;;;11.32;87.02;98107.09;5110169;28;20107;-26
2024/01/08 01:03:16;;;;;;;12.43;7.50;;;;;;;11.61;85.94;98118.34;5110040;28;20102;-26
2024/01/08 01:05:42;;;;;;;14.00;7.47;;;;;;;11.36;86.81;98113.53;5110146;28;20062;-26
2024/01/08 01:08:07;;;;;;;11.38;7.72;;;;;;;11.26;88.11;98106.25;5110466;28;20062;-25
2024/01/08 01:10:32;;;;;;;11.60;7.55;;;;;;;11.32;87.73;98112.44;5110208;28;20051;-25
2024/01/08 01:12:59;;;;;;;12.52;7.82;;;;;;;11.15;88.74;98109.81;5110271;28;20036;-26
2024/01/08 01:15:25;;;;;;;13.07;7.45;;;;;;;11.16;89.30;98111.44;5110175;28;20447;-25
2024/01/08 01:17:50;;;;;;;14.65;7.75;;;;;;;10.98;90.66;98117.06;5110470;28;20031;-26
2024/01/08 01:20:15;;;;;;;13.68;8.38;;;;;;;11.23;89.44;98111.25;5110209;28;20447;-25
2024/01/08 01:22:41;;;;;;;13.52;8.23;;;;;;;11.13;90.17;98110.06;5110292;28;20080;-26
2024/01/08 01:25:06;;;;;;;11.35;8.02;;;;;;;11.06;91.12;98098.81;5110186;28;20027;-25
2024/01/08 01:27:32;;;;;;;13.70;7.75;;;;;;;11.26;90.66;98102.78;5109181;28;20032;-26
2024/01/08 01:29:57;;;;;;;14.13;7.97;;;;;;;11.05;91.35;98110.50;5113934;28;20054;-27
2024/01/08 01:32:22;;;;;;;14.57;7.82;;;;;;;11.09;90.66;98105.50;5114173;28;20024;-26
2024/01/08 01:34:48;;;;;;;15.63;8.68;;;;;;;11.12;92.15;98111.13;5113821;27;20158;-26
2024/01/08 01:37:13;;;;;;;15.63;8.38;;;;;;;11.31;89.61;98111.63;5113833;28;20031;-26
2024/01/08 01:39:38;;;;;;;11.85;8.20;;;;;;;11.15;91.20;98110.63;5113277;28;20487;-27
2024/01/08 01:42:04;;;;;;;14.00;8.70;;;;;;;10.88;92.69;98113.19;5113257;28;20031;-25
2024/01/08 01:44:29;;;;;;;14.23;8.70;;;;;;;11.06;91.74;98113.97;5113737;27;20055;-26
2024/01/08 01:46:55;;;;;;;13.82;8.52;;;;;;;11.04;92.11;98116.88;5113631;28;20047;-26
2024/01/08 01:49:22;;;;;;;12.45;7.95;;;;;;;10.78;93.85;98110.41;5113836;27;20110;-26
2024/01/08 01:51:49;;;;;;;15.73;8.40;;;;;;;10.80;93.92;98118.16;5113237;28;20026;-26
2024/01/08 01:54:16;;;;;;;15.00;8.80;;;;;;;11.04;93.07;98110.75;5113309;28;20057;-24
2024/01/08 01:56:44;;;;;;;18.25;9.07;;;;;;;11.18;92.27;98108.53;5113068;28;20544;-26
2024/01/08 01:59:10;;;;;;;14.35;8.52;;;;;;;10.96;92.74;98114.63;5113093;28;20035;-25
2024/01/08 02:01:36;;;;;;;16.15;8.10;;;;;;;10.96;92.40;98123.41;5112095;28;20106;-25
2024/01/08 02:04:03;;;;;;;13.05;8.25;;;;;;;10.94;93.52;98119.41;5092302;28;20127;-25
2024/01/08 02:06:29;;;;;;;11.75;7.82;;;;;;;10.95;93.46;98115.69;5092940;28;20073;-26
2024/01/08 02:08:56;;;;;;;11.88;7.18;;;;;;;11.13;91.97;98125.25;5092692;28;20034;-25
2024/01/08 02:11:21;;;;;;;12.95;7.35;;;;;;;10.92;92.79;98122.28;5092886;28;20107;-26
2024/01/08 02:13:48;;;;;;;12.73;7.50;;;;;;;10.83;94.04;98134.41;5093097;28;20559;-25
2024/01/08 02:16:15;;;;;;;12.98;7.93;;;;;;;11.25;92.26;98123.28;5092713;28;20038;-26
2024/01/08 02:18:40;;;;;;;14.13;8.15;;;;;;;11.25;91.46;98127.78;5092780;28;20028;-26
2024/01/08 02:21:05;;;;;;;12.93;8.15;;;;;;;11.34;90.56;98124.44;5092560;28;20035;-27
2024/01/08 02:23:31;;;;;;;15.13;8.68;;;;;;;11.27;90.24;98121.19;5108771;27;20038;-26
2024/01/08 02:25:57;;;;;;;12.90;8.25;;;;;;;11.35;90.07;98131.38;5113104;28;20023;-26
2024/01/08 02:28:22;;;;;;;13.02;8.00;;;;;;;11.29;90.84;98126.22;5112922;28;20057;-26
2024/01/08 02:30:48;;;;;;;12.80;8.25;;;;;;;11.27;90.40;98134.50;5112827;28;20046;-25
2024/01/08 02:33:14;;;;;;;11.57;8.20;;;;;;;11.23;91.31;98117.41;5112894;28;20047;-25
2024/01/08 02:35:39;;;;;;;13.25;8.35;;;;;;;11.26;91.73;98134.72;5111507;28;20027;-25
2024/01/08 02:38:04;;;;;;;13.57;8.00;;;;;;;11.26;91.93;98132.06;5112875;28;20445;-26
2024/01/08 02:40:30;;;;;;;12.07;8.25;;;;;;;10.98;92.93;98141.00;5111773;27;20073;-25
2024/01/08 02:42:55;;;;;;;15.05;8.43;;;;;;;11.19;93.01;98142.09;5112989;28;20145;-25
2024/01/08 02:45:20;;;;;;;12.02;7.63;;;;;;;11.01;92.96;98140.53;5112844;28;20463;-25
2024/01/08 02:47:46;;;;;;;13.88;8.25;;;;;;;11.35;91.24;98139.38;5113306;28;20034;-26
2024/01/08 02:50:11;;;;;;;11.75;7.50;;;;;;;11.40;90.83;98135.97;5113136;28;20031;-26
2024/01/08 02:52:36;;;;;;;11.63;7.80;;;;;;;11.31;92.31;98142.78;5113218;28;20023;-26
2024/01/08 02:55:02;;;;;;;13.35;7.40;;;;;;;11.12;91.95;98148.41;5112780;28;20027;-26
2024/01/08 02:57:29;;;;;;;10.75;6.95;;;;;;;11.19;93.24;98148.22;5113579;28;20023;-26
2024/01/08 02:59:55;;;;;;;11.23;7.10;;;;;;;11.09;93.69;98148.09;5112905;28;20032;-26
2024/01/08 03:02:21;;;;;;;11.32;6.85;;;;;;;11.07;93.59;98152.84;5112950;28;20379;-26
2024/01/08 03:04:46;;;;;;;11.80;6.93;;;;;;;11.15;93.20;98158.53;5112641;28;20111;-26
2024/01/08 03:07:15;;;;;;;15.25;7.45;;;;;;;11.27;92.32;98160.28;5112672;28;20055;-26
2024/01/08 03:09:41;;;;;;;15.25;7.57;;;;;;;11.09;93.77;98164.84;5112457;28;20055;-25
2024/01/08 03:12:07;;;;;;;13.50;7.07;;;;;;;11.42;93.05;98167.69;5112482;27;20064;-25
2024/01/08 03:14:32;;;;;;;9.43;6.32;;;;;;;11.46;91.97;98158.97;5112773;28;20372;-25
2024/01/08 03:16:57;;;;;;;12.02;6.78;;;;;;;11.43;91.76;98164.78;5112608;28;20213;-25
2024/01/08 03:19:23;;;;;;;10.07;7.18;;;;;;;11.34;92.47;98164.38;5112984;28;20028;-26
2024/01/08 03:21:48;;;;;;;10.43;6.20;;;;;;;11.10;93.85;98165.66;5128677;27;20504;-25
2024/01/08 03:24:13;;;;;;;12.27;7.78;;;;;;;11.29;93.09;98174.16;5133051;27;20027;-25
2024/01/08 03:26:39;;;;;;;15.13;7.68;;;;;;;11.39;92.08;98174.31;5130877;27;20138;-25
2024/01/08 03:29:04;;;;;;;11.05;6.95;;;;;;;11.32;93.25;98174.47;5111190;28;20027;-25
2024/01/08 03:31:29;;;;;;;12.40;6.47;;;;;;;11.25;92.60;98179.19;5111921;28;20439;-26
2024/01/08 03:33:55;;;;;;;11.52;6.60;;;;;;;11.16;93.47;98178.00;5111391;28;20563;-26
2024/01/08 03:36:20;;;;;;;10.63;6.50;;;;;;;11.24;93.36;98172.25;5111901;28;20046;-27
2024/01/08 03:38:46;;;;;;;10.32;6.40;;;;;;;11.23;93.57;98178.66;5111800;28;20027;-27
2024/01/08 03:41:11;;;;;;;10.98;6.50;;;;;;;11.06;94.11;98177.84;5111970;28;20024;-26
2024/01/08 03:43:36;;;;;;;11.50;6.00;;;;;;;10.93;94.23;98184.34;5111906;28;20024;-25
2024/01/08 03:46:02;;;;;;;9.30;5.65;;;;;;;10.84;94.94;98183.13;5111866;27;20027;-26
2024/01/08 03:48:27;;;;;;;10.82;6.22;;;;;;;10.79;95.32;98188.38;5112166;28;20027;-26
2024/01/08 03:50:52;;;;;;;8.52;5.38;;;;;;;10.82;94.27;98188.69;5108127;28;20080;-26
2024/01/08 03:53:18;;;;;;;10.75;5.18;;;;;;;10.59;93.83;98191.53;5101604;28;20020;-26
2024/01/08 03:55:43;;;;;;;8.07;4.70;;;;;;;10.40;94.72;98186.41;5098043;28;20372;-26
2024/01/08 03:58:08;;;;;;;9.70;4.95;;;;;;;10.72;95.57;98196.53;5101387;28;20039;-26
2024/01/08 04:00:34;;;;;;;8.13;4.72;;;;;;;10.71;94.23;98205.53;5100863;28;20517;-26
2024/01/08 04:02:59;;;;;;;8.63;4.45;;;;;;;10.96;92.32;98215.78;5103939;28;20120;-27
2024/01/08 04:05:24;;;;;;;7.40;4.40;;;;;;;10.73;93.38;98214.09;5111784;28;20028;-26
2024/01/08 04:07:50;;;;;;;7.47;5.00;;;;;;;10.81;92.93;98211.00;5111293;28;20043;-26
2024/01/08 04:10:15;;;;;;;10.32;5.95;;;;;;;10.76;93.59;98208.28;5097805;28;20083;-26
2024/01/08 04:12:41;;;;;;;11.48;5.65;;;;;;;10.82;93.19;98215.31;5111755;28;20073;-26
2024/01/08 04:15:07;;;;;;;8.48;4.95;;;;;;;10.69;93.77;98219.06;5111713;28;20435;-26
2024/01/08 04:17:32;;;;;;;6.40;4.68;;;;;;;10.66;94.35;98208.94;5111243;28;20023;-26
2024/01/08 04:19:57;;;;;;;7.32;4.90;;;;;;;10.80;92.98;98224.59;5111176;28;20102;-26
2024/01/08 04:22:23;;;;;;;9.27;5.22;;;;;;;10.94;92.68;98221.34;5111135;28;20511;-32
2024/01/08 04:24:48;;;;;;;8.98;5.22;;;;;;;10.93;93.36;98226.91;5111265;28;20540;-26
2024/01/08 04:27:14;;;;;;;7.25;4.82;;;;;;;10.58;94.47;98227.94;5110793;28;20050;-26
2024/01/08 04:29:39;;;;;;;7.78;4.90;;;;;;;10.62;95.25;98237.03;5110786;28;20558;-27
2024/01/08 04:32:04;;;;;;;8.25;4.82;;;;;;;10.63;94.82;98240.53;5110617;28;20123;-26
2024/01/08 04:34:30;;;;;;;8.35;4.50;;;;;;;10.77;93.50;98241.81;5110383;28;20026;-27
2024/01/08 04:36:55;;;;;;;9.48;4.25;;;;;;;10.66;92.33;98242.69;5110689;28;20069;-27
2024/01/08 04:39:21;;;;;;;6.68;4.05;;;;;;;10.81;92.48;98252.78;5110643;28;20577;-27
2024/01/08 04:41:46;;;;;;;5.18;3.55;;;;;;;10.78;90.98;98259.41;5110979;28;20020;-27
2024/01/08 04:44:11;;;;;;;5.03;3.33;;;;;;;10.79;91.52;98257.53;5111184;28;20019;-26
2024/01/08 04:46:37;;;;;;;5.28;3.28;;;;;;;10.62;91.81;98249.53;5111363;28;20015;-26
2024/01/08 04:49:03;;;;;;;5.53;3.22;;;;;;;10.61;92.11;98255.94;5111283;28;20020;-27
2024/01/08 04:51:30;;;;;;;5.10;3.17;;;;;;;10.48;92.54;98271.13;5111321;28;20093;-27
2024/01/08 04:53:55;;;;;;;4.43;3.35;;;;;;;10.42;93.85;98261.44;5111023;28;20126;-26
2024/01/08 04:56:25;;;;;;;4.25;3.53;;;;;;;10.66;91.66;98269.28;5111195;28;20051;-26
2024/01/08 04:58:53;;;;;;;;;;;;;;;10.48;91.44;98263.13;5111490;28;20028;-26
2024/01/08 05:01:19;;;;;;;6.80;3.08;;;;;;;10.54;91.04;98269.38;5110968;28;20053;-26
2024/01/08 05:03:45;;;;;;;6.57;3.00;;;;;;;10.68;89.68;98285.81;5094540;28;20132;-26
2024/01/08 05:06:11;;;;;;;5.00;2.97;;;;;;;10.64;89.76;98284.69;5094959;28;20031;-26
2024/01/08 05:08:38;;;;;;;6.30;3.20;;;;;;;10.42;89.95;98272.09;5095280;28;20154;-26
2024/01/08 05:11:07;;;;;;;3.88;2.60;;;;;;;10.41;91.01;98291.72;5094690;28;20412;-26
2024/01/08 05:13:33;;;;;;;4.22;2.67;;;;;;;10.54;91.03;98291.44;5094829;28;20020;-26
2024/01/08 05:16:00;;;;;;;5.40;2.53;;;;;;;10.76;90.29;98298.75;5094852;28;20035;-26
2024/01/08 05:18:25;;;;;;;3.63;2.60;;;;;;;11.27;86.87;98301.44;5094434;28;20057;-25
2024/01/08 05:20:50;;;;;;;4.80;2.53;;;;;;;11.20;85.86;98300.81;5094632;28;20395;-26
2024/01/08 05:23:16;;;;;;;4.25;2.25;;;;;;;11.50;84.36;98300.47;5095143;28;20054;-26
2024/01/08 05:25:41;;;;;;;3.05;2.10;;;;;;;11.54;83.26;98315.69;5093304;28;20352;-27
2024/01/08 05:28:06;;;;;;;7.13;2.55;;;;;;;11.66;82.78;98317.47;5094479;28;20016;-25
2024/01/08 05:30:32;;;;;;;6.10;2.63;;;;;;;11.62;82.34;98322.47;5094809;28;20456;-26
2024/01/08 05:32:57;;;;;;;5.57;2.72;;;;;;;11.44;83.74;98312.06;5094767;28;20027;-26
2024/01/08 05:35:23;;;;;;;12.35;5.70;;;;;;;11.72;99.28;98335.13;5094521;28;20098;-27
2024/01/08 05:37:48;;;;;;;5.53;3.10;;;;;;;13.23;92.73;98332.03;5094731;28;20036;-26
2024/01/08 05:40:13;;;;;;;8.57;4.57;;;;;;;13.43;91.02;98339.44;5094518;28;20031;-25
2024/01/08 05:42:40;;;;;;;8.18;4.20;;;;;;;13.92;90.48;98344.56;5094308;28;20136;-26
2024/01/08 05:45:07;;;;;;;7.00;4.07;;;;;;;14.24;85.10;98347.13;5094563;28;20028;-26
2024/01/08 05:47:34;;;;;;;6.10;3.53;;;;;;;14.46;81.56;98352.28;5094575;28;20106;-26
2024/01/08 05:50:01;;;;;;;6.53;3.45;;;;;;;14.70;80.96;98351.03;5094089;28;20028;-27
2024/01/08 05:52:28;;;;;;;4.90;2.97;;;;;;;14.51;76.97;98351.50;5103750;28;20027;-26
2024/01/08 05:54:55;;;;;;;5.78;2.90;;;;;;;14.22;78.39;98361.81;5114518;28;20273;-27
2024/01/08 05:57:21;;;;;;;6.05;2.80;;;;;;;14.23;78.94;98360.75;5114548;28;20066;-26
2024/01/08 05:59:46;;;;;;;4.40;2.25;;;;;;;13.78;74.15;98364.78;5114045;28;20055;-27
2024/01/08 06:02:12;;;;;;;4.03;2.40;;;;;;;13.81;72.80;98372.31;5112192;27;20028;-27
2024/01/08 06:04:37;;;;;;;4.82;2.20;;;;;;;13.61;72.88;98376.44;5133893;27;20512;-27
2024/01/08 06:07:02;;;;;;;4.07;2.10;;;;;;;13.31;73.76;98371.66;5135243;27;20051;-27
2024/01/08 06:09:28;;;;;;;3.25;2.17;;;;;;;12.77;77.00;98385.78;5135023;27;20139;-33
2024/01/08 06:11:53;;;;;;;3.78;2.47;;;;;;;12.73;76.67;98392.69;5134902;27;20023;-27
2024/01/08 06:14:18;;;;;;;4.47;2.05;;;;;;;12.46;77.47;98390.78;5133371;27;20037;-26
2024/01/08 06:16:44;;;;;;;2.88;1.60;;;;;;;11.75;80.61;98395.94;5135389;27;20026;-25
2024/01/08 06:19:10;;;;;;;2.20;1.40;;;;;;;11.68;81.43;98406.75;5134963;27;20027;-26
2024/01/08 06:21:35;;;;;;;3.00;1.60;;;;;;;11.49;81.98;98403.53;5135125;27;20455;-26
2024/01/08 06:24:00;;;;;;;3.83;1.85;;;;;;;11.37;82.50;98412.66;5134913;27;20454;-27
2024/01/08 06:26:28;;;;;;;2.63;1.70;;;;;;;11.09;84.06;98414.31;5135079;27;20069;-26
2024/01/08 06:28:53;;;;;;;3.35;2.05;;;;;;;10.72;85.57;98415.50;5133537;27;20027;-26
2024/01/08 06:31:19;;;;;;;5.47;2.50;;;;;;;11.08;84.79;98420.66;5134693;27;20023;-27
2024/01/08 06:33:44;;;;;;;3.35;2.40;;;;;;;11.53;84.98;98425.97;5134509;27;20050;-26
2024/01/08 06:36:09;;;;;;;6.50;2.67;;;;;;;11.60;82.58;98431.16;5134772;27;20071;-26
2024/01/08 06:38:35;;;;;;;6.50;3.25;;;;;;;11.80;81.76;98440.50;5134857;27;20482;-27
2024/01/08 06:41:00;;;;;;;5.07;2.88;;;;;;;11.65;81.76;98431.25;5134835;27;20046;-27
2024/01/08 06:43:26;;;;;;;5.65;2.97;;;;;;;11.45;82.72;98442.34;5134338;27;20045;-27
2024/01/08 06:45:51;;;;;;;7.07;3.45;;;;;;;11.17;84.54;98434.41;5134406;27;20026;-26
2024/01/08 06:48:17;;;;;;;4.63;3.00;;;;;;;11.09;84.61;98444.38;5134633;27;20394;-26
2024/01/08 06:50:43;;;;;;;3.70;2.65;;;;;;;10.79;86.57;98447.28;5134426;27;20046;-26
2024/01/08 06:53:08;;;;;;;4.20;2.75;;;;;;;10.65;88.22;98461.91;5135011;27;20046;-27
2024/01/08 06:55:34;;;;;;;5.93;3.53;;;;;;;10.76;86.65;98461.06;5134453;27;20388;-25
2024/01/08 06:57:59;;;;;;;6.30;3.40;;;;;;;10.62;88.48;98468.47;5134567;27;20054;-27
2024/01/08 07:00:27;;;;;;;5.22;2.80;;;;;;;10.46;88.72;98471.88;5134075;27;20027;-27
2024/01/08 07:02:52;;;;;;;4.95;2.75;;;;;;;10.09;91.84;98482.72;5121852;27;20023;-26
2024/01/08 07:05:18;;;;;;;4.45;2.88;;;;;;;10.02;92.17;98482.06;5113420;28;20028;-27
2024/01/08 07:07:44;;;;;;;5.15;3.53;;;;;;;10.05;91.59;98487.72;5113040;28;20117;-26
2024/01/08 07:10:09;;;;;;;4.38;2.75;;;;;;;10.03;91.65;98486.31;5113254;28;20052;-26
2024/01/08 07:12:35;;;;;;;5.07;2.92;;;;;;;9.92;92.42;98495.91;5113211;28;20028;-26
2024/01/08 07:15:00;;;;;;;4.57;2.92;;;;;;;9.83;92.83;98503.41;5113384;28;20027;-27
2024/01/08 07:17:26;;;;;;;3.85;2.47;;;;;;;10.06;91.93;98517.75;5112849;28;20031;-27
2024/01/08 07:19:51;;;;;;;6.00;3.17;;;;;;;10.53;90.41;98521.25;5110418;28;20106;-27
2024/01/08 07:22:17;;;;;;;4.80;3.08;;;;;;;9.96;92.16;98523.66;5092519;28;20028;-26
2024/01/08 07:24:43;;;;;;;5.18;3.20;;;;;;;10.30;92.05;98539.84;5091004;28;20415;-27
2024/01/08 07:27:08;;;;;;;4.82;2.80;;;;;;;10.57;90.25;98548.22;5089740;28;20047;-26
2024/01/08 07:29:33;;;;;;;4.60;2.70;;;;;;;10.51;89.12;98557.91;5090216;28;20120;-26
2024/01/08 07:31:59;;;;;;;5.60;2.90;;;;;;;10.66;89.38;98561.94;5090229;28;20023;-27
2024/01/08 07:34:24;;;;;;;4.43;2.58;;;;;;;10.82;88.84;98568.44;5090903;28;20095;-26
2024/01/08 07:36:49;;;;;;;4.30;2.50;;;;;;;10.82;88.85;98571.91;5090966;28;20055;-27
2024/01/08 07:39:15;;;;;;;4.05;2.72;;;;;;;11.17;86.34;98579.00;5092166;28;20117;-26
2024/01/08 07:41:41;;;;;;;5.53;3.40;;;;;;;11.29;85.32;98585.13;5092317;28;20043;-26
2024/01/08 07:44:07;;;;;;;9.15;3.00;;;;;;;11.33;84.92;98588.91;5102909;28;20081;-26
2024/01/08 07:46:32;;;;;;;4.45;2.97;;;;;;;11.44;84.85;98592.59;5111748;28;20516;-27
2024/01/08 07:48:58;;;;;;;5.43;3.00;;;;;;;11.11;86.75;98603.91;5112226;28;20020;-27
2024/01/08 07:51:24;;;;;;;5.65;2.90;;;;;;;11.45;85.49;98601.41;5112315;28;20023;-28
2024/01/08 07:53:51;;;;;;;5.47;3.45;;;;;;;11.78;83.88;98597.19;5112029;28;20506;-26
2024/01/08 07:56:16;;;;;;;5.68;3.10;;;;;;;11.57;83.98;98601.34;5112371;28;20100;-27
2024/01/08 07:58:42;;;;;;;4.88;2.70;;;;;;;11.62;83.96;98607.59;5112100;28;20070;-26
2024/01/08 08:01:12;;;;;;;3.78;2.67;;;;;;;11.27;85.08;98618.34;5112068;28;20011;-26
2024/01/08 08:03:38;;;;;;;4.22;2.25;;;;;;;10.84;87.42;98623.03;5112340;28;20023;-27
2024/01/08 08:06:03;;;;;;;3.95;2.15;;;;;;;10.85;87.71;98627.31;5112207;28;20445;-27
2024/01/08 08:08:31;;;;;;;4.43;2.28;;;;;;;10.73;88.50;98629.97;5111952;28;20024;-28
2024/01/08 08:10:58;;;;;;;3.80;2.20;;;;;;;10.26;90.63;98632.56;5111972;28;20055;-27
2024/01/08 08:13:24;;;;;;;4.57;2.80;;;;;;;10.60;89.02;98640.03;5111885;28;20047;-27
2024/01/08 08:15:50;;;;;;;4.82;2.40;;;;;;;10.61;89.86;98652.31;5111506;28;20130;-26
2024/01/08 08:18:16;;;;;;;4.72;2.78;;;;;;;10.30;91.07;98656.84;5111908;28;20107;-27
2024/01/08 08:20:42;;;;;;;4.22;2.50;;;;;;;10.31;90.70;98661.16;5111750;28;20467;-26
2024/01/08 08:23:08;;;;;;;4.97;2.92;;;;;;;10.25;91.40;98665.50;5111764;28;20495;-26
2024/01/08 08:25:34;;;;;;;5.85;3.38;;;;;;;10.20;91.98;98668.03;5111670;28;20066;-26
2024/01/08 08:27:59;;;;;;;4.35;3.00;;;;;;;10.53;91.13;98666.75;5111713;28;20560;-26
2024/01/08 08:30:26;;;;;;;5.50;2.80;;;;;;;10.67;89.40;98676.13;5111737;28;20024;-27
2024/01/08 08:32:56;;;;;;;5.05;3.25;;;;;;;11.12;87.84;98678.22;5111835;28;20445;-27
2024/01/08 08:35:22;;;;;;;7.20;4.55;;;;;;;11.35;86.15;98674.72;5111820;28;20055;-26
2024/01/08 08:37:47;;;;;;;6.85;3.42;;;;;;;11.36;85.63;98691.50;5111005;28;20051;-26
2024/01/08 08:40:12;;;;;;;7.10;5.00;;;;;;;11.39;85.10;98688.38;5111918;28;20050;-27
2024/01/08 08:42:38;;;;;;;4.95;3.45;;;;;;;11.44;85.08;98693.81;5110455;28;20402;-30
2024/01/08 08:45:04;;;;;;;5.50;3.10;;;;;;;11.50;84.83;98692.09;5111448;28;20027;-26
2024/01/08 08:47:29;;;;;;;3.60;2.50;;;;;;;10.94;86.23;98703.09;5111569;28;20068;-27
2024/01/08 08:49:55;;;;;;;3.78;2.70;;;;;;;11.06;87.13;98702.28;5111918;28;20032;-27
2024/01/08 08:52:20;;;;;;;4.47;2.50;;;;;;;11.02;86.74;98706.47;5111627;28;20041;-28
2024/01/08 08:54:46;;;;;;;6.47;3.47;;;;;;;11.03;87.02;98705.44;5111511;28;20043;-27
2024/01/08 08:57:11;;;;;;;5.68;3.58;;;;;;;11.26;85.91;98710.75;5112047;28;20038;-28
2024/01/08 08:59:37;;;;;;;8.93;3.92;;;;;;;11.05;86.85;98711.34;5111581;28;20119;-26
2024/01/08 09:02:03;;;;;;;8.25;4.25;;;;;;;11.00;87.58;98709.34;5111751;28;20016;-27
2024/01/08 09:04:28;;;;;;;7.25;4.43;;;;;;;11.19;86.83;98722.56;5111631;28;20441;-26
2024/01/08 09:06:54;;;;;;;7.43;4.35;;;;;;;11.18;86.29;98719.09;5111750;28;20518;-26
2024/01/08 09:09:19;;;;;;;7.25;4.05;;;;;;;11.06;86.70;98721.75;5111368;28;20055;-26
2024/01/08 09:11:45;;;;;;;5.47;3.63;;;;;;;11.07;87.33;98719.91;5111567;28;20040;-26
2024/01/08 09:14:10;;;;;;;4.47;3.20;;;;;;;11.10;87.86;98725.56;5111610;28;20518;-26
2024/01/08 09:16:36;;;;;;;5.22;3.33;;;;;;;10.98;88.39;98724.75;5111347;28;20027;-27
2024/01/08 09:19:01;;;;;;;5.18;3.13;;;;;;;11.21;86.78;98725.78;5111579;28;20371;-27
2024/01/08 09:21:27;;;;;;;7.72;3.58;;;;;;;11.67;85.23;98735.59;5111534;28;20411;-27
2024/01/08 09:23:52;;;;;;;4.90;3.60;;;;;;;11.68;84.55;98733.75;5111332;28;20406;-27
2024/01/08 09:26:18;;;;;;;8.25;4.55;;;;;;;11.61;84.66;98735.72;5111107;28;20112;-27
2024/01/08 09:28:45;;;;;;;8.57;4.57;;;;;;;11.54;84.48;98736.66;5111269;28;20075;-30
2024/01/08 09:31:11;;;;;;;7.20;4.40;;;;;;;11.57;84.95;98732.72;5111477;28;20038;-27
2024/01/08 09:33:36;;;;;;;7.60;3.72;;;;;;;11.95;84.13;98735.91;5111224;28;20020;-26
2024/01/08 09:36:02;;;;;;;6.43;4.18;;;;;;;12.20;82.80;98736.38;5111191;28;20040;-26
2024/01/08 09:38:28;;;;;;;6.95;3.90;;;;;;;12.07;81.70;98744.66;5111549;28;20026;-26
2024/01/08 09:40:53;;;;;;;7.55;3.95;;;;;;;12.07;81.86;98734.00;5111109;28;20168;-28
2024/01/08 09:43:19;;;;;;;9.43;4.10;;;;;;;11.80;82.28;98739.03;5108202;28;20016;-28
2024/01/08 09:45:50;;;;;;;6.60;4.03;;;;;;;11.73;82.69;98741.84;5091168;28;20032;-27
2024/01/08 09:48:17;;;;;;;6.93;4.00;;;;;;;11.70;83.09;98753.78;5090748;28;20492;-26
2024/01/08 09:50:44;;;;;;;6.95;3.72;;;;;;;11.79;83.64;98751.56;5094582;28;20020;-28
2024/01/08 09:53:09;;;;;;;5.35;3.65;;;;;;;11.67;83.13;98745.44;5094592;28;20020;-28
2024/01/08 09:55:35;;;;;;;5.50;3.63;;;;;;;11.88;82.26;98744.00;5094361;28;20541;-27
2024/01/08 09:58:01;;;;;;;7.70;4.25;;;;;;;11.93;82.82;98746.78;5094407;28;20066;-27
2024/01/08 10:00:26;;;;;;;5.68;4.35;;;;;;;11.66;83.52;98744.63;5094591;28;20044;-28
2024/01/08 10:02:59;;;;;;;9.68;4.85;;;;;;;11.64;83.76;98744.06;5094531;28;20056;-27
2024/01/08 10:05:28;;;;;;;7.22;4.50;;;;;;;11.68;83.54;98747.88;5094058;28;20376;-26
2024/01/08 10:07:53;;;;;;;7.43;5.00;;;;;;;11.95;82.78;98741.22;5093942;28;20468;-28
2024/01/08 10:10:24;;;;;;;8.02;4.97;;;;;;;11.46;85.19;98752.19;5093875;28;20066;-31
2024/01/08 10:12:53;;;;;;;7.13;4.47;;;;;;;11.58;84.29;98750.31;5093958;28;20024;-27
2024/01/08 10:15:19;;;;;;;6.23;4.00;;;;;;;11.40;84.94;98753.91;5093694;28;20262;-27
2024/01/08 10:17:51;;;;;;;8.82;4.38;;;;;;;11.57;85.14;98761.22;5093911;28;20051;-28
2024/01/08 10:20:18;;;;;;;5.38;3.63;;;;;;;11.05;85.90;98752.06;5093815;28;20032;-27
2024/01/08 10:22:45;;;;;;;6.78;3.50;;;;;;;11.15;86.25;98759.50;5093416;28;20036;-28
2024/01/08 10:25:11;;;;;;;9.02;3.20;;;;;;;11.00;86.79;98761.78;5093609;28;20020;-26
2024/01/08 10:27:36;;;;;;;5.13;3.65;;;;;;;11.11;86.61;98759.13;5093829;28;20107;-26
2024/01/08 10:30:03;;;;;;;7.90;3.72;;;;;;;11.29;86.99;98766.22;5093627;28;20047;-27
2024/01/08 10:32:29;;;;;;;6.07;3.42;;;;;;;11.35;86.32;98759.97;5093673;28;20385;-26
2024/01/08 10:34:56;;;;;;;6.85;4.22;;;;;;;11.43;86.11;98768.66;5093520;28;20467;-28
2024/01/08 10:37:21;;;;;;;8.63;4.38;;;;;;;11.19;87.40;98767.81;5103571;28;20023;-27
2024/01/08 10:39:48;;;;;;;5.93;3.80;;;;;;;11.42;86.59;98769.69;5114709;28;20019;-27
2024/01/08 10:42:14;;;;;;;6.00;3.85;;;;;;;11.15;86.75;98760.28;5114330;28;20024;-27
2024/01/08 10:44:39;;;;;;;4.25;3.20;;;;;;;11.48;86.46;98769.56;5113537;28;20063;-27
2024/01/08 10:47:16;;;;;;;7.10;3.63;;;;;;;11.40;86.68;98766.44;5114082;28;20424;-27
2024/01/08 10:49:48;;;;;;;10.25;3.92;;;;;;;11.55;85.05;98769.44;5113782;28;20019;-29
2024/01/08 10:52:23;;;;;;;5.38;3.63;;;;;;;11.73;84.39;98763.97;5113474;28;20024;-29
2024/01/08 10:54:53;;;;;;;9.30;4.30;;;;;;;11.53;85.39;98766.19;5113188;28;20016;-26
2024/01/08 10:57:20;;;;;;;7.85;3.75;;;;;;;11.43;86.29;98773.97;5112957;28;20026;-26
2024/01/08 10:59:48;;;;;;;5.60;3.28;;;;;;;11.38;86.20;98768.53;5113055;28;20040;-28
2024/01/08 11:02:17;;;;;;;5.45;3.28;;;;;;;11.73;84.66;98771.97;5112477;28;20023;-28
2024/01/08 11:04:45;;;;;;;6.15;3.78;;;;;;;11.57;85.55;98769.22;5113426;28;20023;-28
2024/01/08 11:07:13;;;;;;;5.65;3.40;;;;;;;11.42;85.47;98775.00;5113068;28;20028;-27
2024/01/08 11:09:39;;;;;;;3.92;2.88;;;;;;;11.40;84.59;98777.91;5113175;28;20051;-27
2024/01/08 11:12:10;;;;;;;5.18;3.33;;;;;;;11.47;84.00;98756.47;5113122;28;20031;-27
2024/01/08 11:14:36;;;;;;;5.45;3.45;;;;;;;11.71;84.63;98779.38;5113131;28;20016;-28
2024/01/08 11:17:01;;;;;;;5.28;3.50;;;;;;;11.85;84.06;98779.13;5113215;28;20024;-30
2024/01/08 11:19:27;;;;;;;4.70;3.45;;;;;;;11.59;85.15;98780.44;5113283;28;20410;-26
2024/01/08 11:22:07;;;;;;;4.70;3.30;;;;;;;11.52;85.04;98783.25;5113106;28;20414;-29
2024/01/08 11:24:32;;;;;;;5.20;3.10;;;;;;;11.79;83.46;98788.06;5112722;28;20032;-30